createdAt,value
2018-03-03T00:00:23.692Z,414.20
2018-03-03T00:01:23.679Z,365.10
2018-03-03T00:02:23.667Z,375.50
2018-03-03T00:03:23.652Z,422.10
2018-03-03T00:04:23.641Z,392.90
2018-03-03T00:05:23.622Z,421.90
2018-03-03T00:06:23.613Z,372.80
2018-03-03T00:07:23.595Z,296.70
2018-03-03T00:08:23.582Z,386.60
2018-03-03T00:09:23.572Z,209.30
2018-03-03T00:10:23.554Z,399.20
2018-03-03T00:11:23.538Z,195.20
2018-03-03T00:12:23.525Z,267.90
2018-03-03T00:13:23.513Z,283.10
2018-03-03T00:14:23.517Z,342.60
2018-03-03T00:15:23.483Z,352.30
2018-03-03T00:16:23.470Z,72.10
2018-03-03T00:17:23.457Z,94.90
2018-03-03T00:18:23.445Z,81.60
2018-03-03T00:19:23.433Z,50.90
2018-03-03T00:20:23.419Z,57.00
2018-03-03T00:21:23.402Z,45.30
2018-03-03T00:22:23.384Z,39.80
2018-03-03T00:23:23.373Z,54.80
2018-03-03T00:24:23.359Z,51.10
2018-03-03T00:25:23.414Z,48.00
2018-03-03T00:26:23.333Z,56.80
2018-03-03T00:27:23.314Z,53.90
2018-03-03T00:28:23.304Z,66.30
2018-03-03T00:29:23.285Z,77.90
2018-03-03T00:30:23.273Z,62.90
2018-03-03T00:31:23.277Z,80.90
2018-03-03T00:32:23.249Z,190.90
2018-03-03T00:33:23.231Z,296.60
2018-03-03T00:34:23.214Z,313.50
2018-03-03T00:35:23.259Z,366.10
2018-03-03T00:36:23.202Z,672.60
2018-03-03T00:37:23.174Z,593.30
2018-03-03T00:38:23.162Z,303.30
2018-03-03T00:39:23.144Z,313.40
2018-03-03T00:40:23.136Z,161.00
2018-03-03T00:41:23.115Z,143.30
2018-03-03T00:42:23.102Z,587.20
2018-03-03T00:43:23.085Z,409.40
2018-03-03T00:44:23.068Z,685.50
2018-03-03T00:45:23.102Z,717.80
2018-03-03T00:46:23.044Z,335.50
2018-03-03T00:47:23.029Z,596.50
2018-03-03T00:48:23.016Z,233.20
2018-03-03T00:49:23.004Z,150.20
2018-03-03T00:50:22.987Z,316.00
2018-03-03T00:51:22.971Z,693.30
2018-03-03T00:52:22.956Z,892.90
2018-03-03T00:53:22.946Z,273.80
2018-03-03T00:54:22.930Z,355.00
2018-03-03T00:55:22.922Z,506.10
2018-03-03T00:56:22.900Z,308.80
2018-03-03T00:57:22.884Z,395.00
2018-03-03T00:58:22.863Z,312.20
2018-03-03T00:59:22.858Z,287.50
2018-03-03T01:00:22.854Z,128.70
2018-03-03T01:01:22.827Z,120.00
2018-03-03T01:02:22.813Z,129.60
2018-03-03T01:03:22.802Z,125.90
2018-03-03T01:04:22.785Z,111.30
2018-03-03T01:05:22.771Z,107.40
2018-03-03T01:06:22.761Z,100.80
2018-03-03T01:07:22.744Z,93.80
2018-03-03T01:08:22.727Z,95.90
2018-03-03T01:09:22.714Z,92.00
2018-03-03T01:10:22.701Z,100.40
2018-03-03T01:11:22.684Z,97.30
2018-03-03T01:12:22.678Z,97.60
2018-03-03T01:13:22.661Z,96.30
2018-03-03T01:14:22.647Z,91.60
2018-03-03T01:15:22.626Z,87.20
2018-03-03T01:16:22.613Z,93.30
2018-03-03T01:17:22.598Z,94.40
2018-03-03T01:18:22.584Z,96.10
2018-03-03T01:19:22.570Z,96.00
2018-03-03T01:20:22.549Z,98.30
2018-03-03T01:21:22.542Z,96.50
2018-03-03T01:22:22.526Z,97.40
2018-03-03T01:23:22.520Z,100.70
2018-03-03T01:24:22.497Z,97.90
2018-03-03T01:25:22.484Z,93.50
2018-03-03T01:26:22.459Z,89.20
2018-03-03T01:27:22.452Z,99.40
2018-03-03T01:28:22.439Z,88.90
2018-03-03T01:29:22.426Z,94.70
2018-03-03T01:30:22.414Z,98.50
2018-03-03T01:31:22.396Z,101.60
2018-03-03T01:32:22.380Z,100.70
2018-03-03T01:33:22.365Z,101.90
2018-03-03T02:05:31.978Z,54.60
2018-03-03T02:06:31.932Z,123.50
2018-03-03T02:08:24.822Z,144.70
2018-03-03T02:09:24.791Z,159.10
2018-03-03T02:11:17.677Z,210.60
2018-03-03T02:12:17.640Z,198.70
2018-03-03T02:14:10.525Z,178.40
2018-03-03T02:15:10.504Z,149.70
2018-03-03T02:17:03.379Z,116.80
2018-03-03T02:18:03.343Z,120.90
2018-03-03T02:19:56.232Z,112.30
2018-03-03T02:20:56.212Z,102.40
2018-03-03T02:22:50.114Z,100.90
2018-03-03T02:23:50.078Z,102.30
2018-03-03T02:25:42.958Z,91.30
2018-03-03T02:26:42.925Z,99.10
2018-03-03T02:28:35.819Z,94.40
2018-03-03T02:29:35.780Z,92.10
2018-03-03T02:31:28.669Z,104.60
2018-03-03T02:32:28.640Z,104.50
2018-03-03T02:34:21.579Z,109.30
2018-03-03T02:35:21.521Z,120.20
2018-03-03T02:37:14.418Z,134.80
2018-03-03T02:38:14.375Z,127.20
2018-03-03T02:40:07.257Z,124.30
2018-03-03T02:41:07.297Z,123.80
2018-03-03T02:43:00.165Z,122.90
2018-03-03T02:44:00.130Z,134.50
2018-03-03T02:45:53.007Z,112.90
2018-03-03T02:46:52.983Z,108.50
2018-03-03T02:48:45.869Z,91.60
2018-03-03T02:49:45.832Z,90.70
2018-03-03T02:51:38.710Z,94.20
2018-03-03T02:52:38.688Z,91.60
2018-03-03T02:54:31.567Z,95.10
2018-03-03T02:55:31.539Z,91.60
2018-03-03T02:57:24.522Z,97.80
2018-03-03T02:58:24.486Z,94.50
2018-03-03T03:00:17.294Z,84.70
2018-03-03T03:01:17.249Z,84.30
2018-03-03T03:03:10.126Z,77.50
2018-03-03T03:04:10.102Z,68.30
2018-03-03T03:06:02.988Z,76.00
2018-03-03T03:07:02.954Z,73.10
2018-03-03T03:08:55.832Z,73.30
2018-03-03T03:09:55.802Z,71.20
2018-03-03T03:11:48.738Z,75.30
2018-03-03T03:12:48.702Z,70.50
2018-03-03T03:14:41.604Z,72.10
2018-03-03T03:15:41.550Z,69.10
2018-03-03T03:17:34.419Z,63.00
2018-03-03T03:18:34.406Z,68.20
2018-03-03T03:20:27.286Z,66.60
2018-03-03T03:21:27.256Z,70.80
2018-03-03T03:23:20.134Z,70.40
2018-03-03T03:24:20.103Z,76.20
2018-03-03T03:26:12.995Z,80.70
2018-03-03T03:27:12.959Z,89.20
2018-03-03T03:29:05.835Z,89.90
2018-03-03T03:30:05.811Z,83.60
2018-03-03T03:31:58.692Z,79.30
2018-03-03T03:32:58.657Z,72.10
2018-03-03T03:34:51.538Z,70.70
2018-03-03T03:35:51.509Z,72.30
2018-03-03T03:37:44.484Z,59.60
2018-03-03T03:38:44.458Z,66.90
2018-03-03T03:40:37.336Z,63.10
2018-03-03T03:41:37.321Z,62.90
2018-03-03T03:42:37.310Z,68.70
2018-03-03T03:43:37.290Z,62.50
2018-03-03T03:44:37.275Z,66.80
2018-03-03T03:45:37.263Z,65.30
2018-03-03T03:46:37.251Z,65.70
2018-03-03T03:47:37.244Z,69.30
2018-03-03T03:48:37.222Z,65.70
2018-03-03T03:49:37.210Z,61.70
2018-03-03T03:50:37.197Z,60.90
2018-03-03T03:51:37.181Z,62.50
2018-03-03T03:52:37.166Z,58.80
2018-03-03T03:53:37.151Z,61.90
2018-03-03T03:54:37.137Z,60.60
2018-03-03T03:55:37.128Z,63.20
2018-03-03T03:56:37.107Z,62.10
2018-03-03T03:57:37.104Z,57.70
2018-03-03T03:58:37.085Z,57.90
2018-03-03T03:59:37.072Z,51.60
2018-03-03T04:00:37.057Z,51.00
2018-03-03T04:01:37.030Z,54.20
2018-03-03T04:02:37.020Z,57.40
2018-03-03T04:03:37.012Z,52.70
2018-03-03T04:04:37.001Z,55.20
2018-03-03T04:05:36.986Z,56.90
2018-03-03T04:06:36.968Z,52.80
2018-03-03T04:07:36.955Z,56.20
2018-03-03T04:08:36.944Z,53.10
2018-03-03T04:09:36.930Z,53.70
2018-03-03T04:10:36.915Z,54.10
2018-03-03T04:11:36.900Z,50.60
2018-03-03T04:12:36.884Z,50.60
2018-03-03T04:13:36.872Z,51.10
2018-03-03T04:14:36.854Z,50.20
2018-03-03T04:15:36.847Z,51.30
2018-03-03T04:16:36.829Z,48.60
2018-03-03T04:17:36.815Z,48.70
2018-03-03T04:18:36.800Z,46.80
2018-03-03T04:19:36.787Z,50.00
2018-03-03T04:20:36.771Z,48.90
2018-03-03T04:21:36.757Z,48.00
2018-03-03T04:22:36.748Z,46.70
2018-03-03T04:23:36.728Z,49.40
2018-03-03T04:24:36.713Z,44.70
2018-03-03T04:25:36.706Z,49.60
2018-03-03T04:26:36.685Z,46.60
2018-03-03T04:27:36.672Z,49.20
2018-03-03T04:28:36.654Z,46.60
2018-03-03T04:29:36.640Z,47.40
2018-03-03T04:30:36.632Z,49.20
2018-03-03T04:31:36.616Z,49.30
2018-03-03T04:32:36.619Z,43.90
2018-03-03T04:33:36.581Z,47.60
2018-03-03T04:34:36.572Z,47.50
2018-03-03T04:35:36.561Z,44.10
2018-03-03T04:36:36.546Z,46.20
2018-03-03T04:37:36.527Z,45.10
2018-03-03T04:38:36.513Z,47.80
2018-03-03T04:39:36.497Z,44.80
2018-03-03T04:40:36.483Z,41.50
2018-03-03T04:41:36.467Z,46.60
2018-03-03T04:42:36.453Z,47.90
2018-03-03T04:43:36.430Z,49.30
2018-03-03T04:44:36.421Z,43.80
2018-03-03T04:45:36.407Z,47.80
2018-03-03T04:46:36.424Z,45.70
2018-03-03T04:47:36.382Z,44.10
2018-03-03T04:48:36.365Z,40.40
2018-03-03T04:49:36.352Z,41.00
2018-03-03T04:50:36.339Z,39.90
2018-03-03T04:51:36.322Z,42.50
2018-03-03T04:52:36.309Z,40.80
2018-03-03T04:53:36.291Z,39.70
2018-03-03T04:54:36.277Z,39.80
2018-03-03T04:55:36.266Z,37.60
2018-03-03T04:56:36.247Z,39.60
2018-03-03T04:57:36.232Z,42.00
2018-03-03T04:58:36.217Z,39.10
2018-03-03T04:59:36.203Z,39.00
2018-03-03T05:00:36.191Z,38.40
2018-03-03T05:01:36.174Z,38.70
2018-03-03T05:02:36.160Z,38.70
2018-03-03T05:03:36.144Z,40.60
2018-03-03T05:04:36.136Z,39.00
2018-03-03T05:05:36.118Z,40.10
2018-03-03T05:06:36.102Z,39.40
2018-03-03T05:07:36.084Z,39.30
2018-03-03T05:08:36.088Z,37.30
2018-03-03T05:09:36.055Z,38.70
2018-03-03T05:10:36.045Z,40.80
2018-03-03T05:11:36.032Z,40.20
2018-03-03T05:12:36.019Z,43.10
2018-03-03T05:13:35.995Z,40.80
2018-03-03T05:14:35.984Z,43.90
2018-03-03T05:15:35.972Z,42.70
2018-03-03T05:16:35.952Z,40.60
2018-03-03T05:17:35.945Z,38.50
2018-03-03T05:18:35.924Z,38.80
2018-03-03T05:19:35.908Z,42.30
2018-03-03T05:20:35.892Z,39.70
2018-03-03T05:21:35.880Z,41.80
2018-03-03T05:22:35.865Z,42.80
2018-03-03T05:23:35.854Z,42.80
2018-03-03T05:24:35.853Z,41.70
2018-03-03T05:25:35.820Z,41.50
2018-03-03T05:26:35.806Z,40.20
2018-03-03T05:27:35.792Z,38.50
2018-03-03T05:28:35.776Z,39.00
2018-03-03T05:29:35.763Z,37.60
2018-03-03T05:30:35.751Z,36.90
2018-03-03T05:31:35.733Z,39.30
2018-03-03T05:32:35.716Z,39.90
2018-03-03T05:33:35.706Z,37.00
2018-03-03T05:34:35.691Z,38.10
2018-03-03T05:35:35.676Z,39.50
2018-03-03T05:36:35.658Z,39.40
2018-03-03T05:37:35.634Z,40.80
2018-03-03T05:38:35.630Z,48.50
2018-03-03T05:39:35.618Z,50.00
2018-03-03T05:40:35.601Z,40.90
2018-03-03T05:41:35.591Z,41.10
2018-03-03T05:42:35.573Z,38.90
2018-03-03T05:43:35.562Z,38.80
2018-03-03T05:44:35.548Z,40.40
2018-03-03T05:45:35.528Z,40.60
2018-03-03T05:46:35.515Z,39.40
2018-03-03T05:47:35.500Z,39.70
2018-03-03T05:48:35.483Z,43.60
2018-03-03T05:49:35.469Z,41.30
2018-03-03T05:50:35.457Z,42.70
2018-03-03T05:51:35.438Z,60.90
2018-03-03T05:52:35.424Z,67.20
2018-03-03T05:53:35.412Z,65.60
2018-03-03T05:54:35.394Z,51.90
2018-03-03T05:55:35.383Z,47.60
2018-03-03T05:56:35.365Z,44.10
2018-03-03T05:57:35.353Z,42.90
2018-03-03T05:58:35.336Z,40.20
2018-03-03T05:59:35.319Z,39.80
2018-03-03T06:00:35.306Z,40.70
2018-03-03T06:01:35.302Z,42.90
2018-03-03T06:02:35.281Z,41.60
2018-03-03T06:03:35.271Z,41.80
2018-03-03T06:04:35.247Z,42.60
2018-03-03T06:05:35.236Z,45.40
2018-03-03T06:06:35.219Z,44.50
2018-03-03T06:07:35.207Z,45.50
2018-03-03T06:08:35.189Z,45.20
2018-03-03T06:09:35.175Z,46.10
2018-03-03T06:10:35.153Z,45.80
2018-03-03T06:11:35.147Z,49.50
2018-03-03T06:12:35.129Z,46.90
2018-03-03T06:13:35.125Z,51.60
2018-03-03T06:14:35.099Z,49.90
2018-03-03T06:15:35.085Z,48.60
2018-03-03T06:16:35.070Z,48.20
2018-03-03T06:17:35.058Z,48.40
2018-03-03T06:18:35.044Z,50.00
2018-03-03T06:19:35.030Z,47.10
2018-03-03T06:20:35.014Z,48.70
2018-03-03T06:21:35.002Z,46.90
2018-03-03T06:22:34.987Z,44.50
2018-03-03T06:23:34.975Z,50.90
2018-03-03T06:24:34.956Z,48.60
2018-03-03T06:25:34.944Z,45.00
2018-03-03T06:26:34.928Z,48.80
2018-03-03T06:27:34.915Z,40.90
2018-03-03T06:28:34.898Z,47.70
2018-03-03T06:29:34.887Z,45.80
2018-03-03T06:30:34.871Z,53.30
2018-03-03T06:31:34.857Z,50.80
2018-03-03T06:32:34.840Z,46.60
2018-03-03T06:33:34.834Z,39.50
2018-03-03T06:34:34.813Z,36.20
2018-03-03T06:35:34.802Z,37.10
2018-03-03T06:36:34.790Z,44.40
2018-03-03T06:37:34.771Z,37.70
2018-03-03T06:38:34.758Z,35.80
2018-03-03T06:39:34.749Z,48.70
2018-03-03T06:40:34.751Z,68.20
2018-03-03T06:41:34.720Z,171.40
2018-03-03T06:42:34.698Z,212.60
2018-03-03T06:43:34.690Z,221.20
2018-03-03T06:44:34.676Z,161.00
2018-03-03T06:45:34.663Z,154.80
2018-03-03T06:46:34.652Z,79.30
2018-03-03T06:47:34.654Z,62.30
2018-03-03T06:48:34.622Z,49.50
2018-03-03T06:49:34.621Z,47.90
2018-03-03T06:50:34.595Z,41.30
2018-03-03T06:51:34.584Z,38.70
2018-03-03T06:52:34.560Z,45.10
2018-03-03T06:53:34.567Z,51.60
2018-03-03T06:54:34.542Z,37.80
2018-03-03T06:55:34.531Z,36.10
2018-03-03T06:56:34.514Z,40.80
2018-03-03T06:57:34.519Z,37.50
2018-03-03T06:58:34.491Z,36.30
2018-03-03T06:59:34.485Z,37.50
2018-03-03T07:00:34.463Z,31.70
2018-03-03T07:01:34.451Z,31.90
2018-03-03T07:02:34.436Z,32.80
2018-03-03T07:03:34.421Z,37.70
2018-03-03T07:04:34.412Z,39.40
2018-03-03T07:05:34.389Z,38.70
2018-03-03T07:06:34.385Z,41.70
2018-03-03T07:07:34.371Z,42.80
2018-03-03T07:08:34.363Z,39.20
2018-03-03T07:09:34.348Z,38.90
2018-03-03T07:10:34.336Z,38.70
2018-03-03T07:11:34.324Z,35.80
2018-03-03T07:12:34.315Z,34.30
2018-03-03T07:13:34.296Z,36.00
2018-03-03T07:14:34.289Z,38.10
2018-03-03T07:15:34.277Z,38.50
2018-03-03T07:16:34.260Z,38.50
2018-03-03T07:17:34.246Z,44.40
2018-03-03T07:18:34.232Z,43.90
2018-03-03T07:19:34.229Z,46.50
2018-03-03T07:20:34.216Z,42.10
2018-03-03T07:21:34.199Z,45.40
2018-03-03T07:22:34.234Z,44.40
2018-03-03T07:23:34.176Z,48.80
2018-03-03T07:24:34.166Z,49.70
2018-03-03T07:25:34.156Z,47.90
2018-03-03T07:26:34.141Z,47.30
2018-03-03T07:27:34.135Z,40.10
2018-03-03T07:28:34.121Z,39.80
2018-03-03T07:29:34.109Z,41.60
2018-03-03T07:30:34.099Z,42.30
2018-03-03T07:31:34.096Z,45.80
2018-03-03T07:32:34.078Z,49.60
2018-03-03T07:33:34.064Z,53.80
2018-03-03T07:34:34.054Z,49.60
2018-03-03T07:35:34.108Z,41.40
2018-03-03T07:36:34.036Z,37.60
2018-03-03T07:37:34.026Z,35.20
2018-03-03T07:38:34.015Z,37.20
2018-03-03T07:39:34.009Z,35.70
2018-03-03T07:40:33.993Z,35.40
2018-03-03T07:41:33.984Z,33.30
2018-03-03T07:42:33.974Z,33.90
2018-03-03T07:43:33.969Z,33.30
2018-03-03T07:44:33.957Z,32.90
2018-03-03T07:45:33.945Z,32.90
2018-03-03T07:46:33.937Z,36.10
2018-03-03T07:47:33.930Z,32.30
2018-03-03T07:48:33.920Z,34.40
2018-03-03T07:49:33.910Z,32.20
2018-03-03T07:50:33.914Z,33.20
2018-03-03T07:51:33.891Z,30.80
2018-03-03T07:52:33.896Z,32.50
2018-03-03T07:53:33.875Z,31.40
2018-03-03T07:54:33.873Z,35.20
2018-03-03T07:55:33.852Z,35.30
2018-03-03T07:56:33.846Z,35.80
2018-03-03T07:57:33.837Z,31.50
2018-03-03T07:58:33.828Z,31.60
2018-03-03T07:59:33.821Z,35.30
2018-03-03T08:00:33.811Z,35.00
2018-03-03T08:01:33.803Z,33.30
2018-03-03T08:02:33.792Z,33.60
2018-03-03T08:03:33.788Z,31.60
2018-03-03T08:04:33.801Z,34.30
2018-03-03T08:05:33.775Z,31.50
2018-03-03T08:06:33.760Z,31.10
2018-03-03T08:07:33.752Z,32.80
2018-03-03T08:08:33.745Z,32.30
2018-03-03T08:09:33.736Z,32.50
2018-03-03T08:10:33.734Z,33.50
2018-03-03T08:11:33.722Z,30.00
2018-03-03T08:12:33.716Z,32.40
2018-03-03T08:13:33.707Z,32.80
2018-03-03T08:14:33.700Z,32.00
2018-03-03T08:15:33.696Z,32.60
2018-03-03T08:16:33.686Z,31.80
2018-03-03T08:17:33.676Z,30.10
2018-03-03T08:18:33.671Z,32.50
2018-03-03T08:19:33.665Z,31.90
2018-03-03T08:20:33.660Z,31.30
2018-03-03T08:21:33.646Z,31.60
2018-03-03T08:22:33.640Z,32.40
2018-03-03T08:23:33.638Z,33.50
2018-03-03T08:24:33.628Z,32.10
2018-03-03T08:25:33.643Z,33.30
2018-03-03T08:26:33.611Z,31.50
2018-03-03T08:27:33.605Z,30.10
2018-03-03T08:28:33.620Z,28.60
2018-03-03T08:29:33.623Z,28.10
2018-03-03T08:30:33.586Z,29.70
2018-03-03T08:31:33.593Z,30.90
2018-03-03T08:32:33.588Z,28.80
2018-03-03T08:33:33.564Z,31.30
2018-03-03T08:34:33.560Z,32.00
2018-03-03T08:35:33.554Z,29.80
2018-03-03T08:36:33.545Z,35.60
2018-03-03T08:37:33.539Z,33.60
2018-03-03T08:38:33.527Z,34.80
2018-03-03T08:39:33.536Z,30.00
2018-03-03T08:40:33.531Z,28.50
2018-03-03T08:41:33.515Z,27.50
2018-03-03T08:42:33.506Z,28.10
2018-03-03T08:43:33.513Z,28.40
2018-03-03T08:44:33.495Z,26.00
2018-03-03T08:45:33.487Z,28.20
2018-03-03T08:46:33.488Z,24.30
2018-03-03T08:47:33.487Z,24.30
2018-03-03T08:48:33.478Z,24.90
2018-03-03T08:49:33.550Z,25.50
2018-03-03T08:50:33.499Z,25.10
2018-03-03T08:51:33.463Z,25.60
2018-03-03T08:52:33.454Z,24.30
2018-03-03T08:53:33.449Z,24.30
2018-03-03T08:54:33.438Z,24.90
2018-03-03T08:55:33.434Z,24.30
2018-03-03T08:56:33.432Z,25.80
2018-03-03T08:57:33.425Z,24.90
2018-03-03T08:58:33.423Z,24.60
2018-03-03T08:59:33.417Z,24.10
2018-03-03T09:00:33.412Z,25.20
2018-03-03T09:01:33.410Z,27.10
2018-03-03T09:02:33.394Z,26.00
2018-03-03T09:03:33.401Z,28.40
2018-03-03T09:04:33.487Z,25.60
2018-03-03T09:05:33.393Z,26.00
2018-03-03T09:06:33.394Z,23.10
2018-03-03T09:07:33.388Z,23.00
2018-03-03T09:08:33.383Z,23.20
2018-03-03T09:09:33.382Z,22.40
2018-03-03T09:10:33.378Z,20.10
2018-03-03T09:11:33.378Z,20.90
2018-03-03T09:12:33.360Z,18.40
2018-03-03T09:13:33.364Z,20.20
2018-03-03T09:14:33.362Z,20.10
2018-03-03T09:15:33.362Z,19.50
2018-03-03T09:16:33.358Z,20.40
2018-03-03T09:17:33.350Z,20.40
2018-03-03T09:18:33.351Z,19.70
2018-03-03T09:19:33.345Z,17.90
2018-03-03T09:20:33.342Z,16.70
2018-03-03T09:21:33.343Z,17.20
2018-03-03T09:22:33.332Z,16.80
2018-03-03T09:23:33.336Z,15.40
2018-03-03T09:24:33.328Z,16.10
2018-03-03T09:25:33.329Z,15.20
2018-03-03T09:26:33.324Z,16.40
2018-03-03T09:27:33.324Z,16.50
2018-03-03T09:28:33.346Z,15.20
2018-03-03T09:29:33.316Z,16.90
2018-03-03T09:30:33.328Z,17.40
2018-03-03T09:31:33.326Z,17.70
2018-03-03T09:32:33.306Z,17.40
2018-03-03T09:33:33.307Z,17.10
2018-03-03T09:34:33.297Z,15.90
2018-03-03T09:35:33.300Z,17.90
2018-03-03T09:36:33.295Z,16.40
2018-03-03T09:37:33.297Z,15.80
2018-03-03T09:38:33.294Z,16.70
2018-03-03T09:39:33.289Z,16.00
2018-03-03T09:40:33.288Z,17.50
2018-03-03T09:41:33.283Z,15.80
2018-03-03T09:42:33.278Z,17.40
2018-03-03T09:43:33.283Z,15.00
2018-03-03T09:44:33.278Z,15.40
2018-03-03T09:45:33.276Z,16.50
2018-03-03T09:46:33.270Z,16.10
2018-03-03T09:47:33.274Z,15.40
2018-03-03T09:48:33.267Z,15.10
2018-03-03T09:49:33.268Z,17.00
2018-03-03T09:50:33.267Z,16.70
2018-03-03T09:51:33.263Z,18.00
2018-03-03T09:52:33.266Z,15.90
2018-03-03T09:53:33.258Z,16.20
2018-03-03T09:54:33.259Z,15.60
2018-03-03T09:55:33.263Z,15.50
2018-03-03T09:56:33.255Z,16.30
2018-03-03T09:57:33.253Z,16.30
2018-03-03T09:58:33.253Z,14.60
2018-03-03T09:59:33.253Z,15.80
2018-03-03T10:00:33.253Z,14.90
2018-03-03T10:01:33.262Z,15.40
2018-03-03T10:02:33.248Z,15.70
2018-03-03T10:03:33.250Z,15.30
2018-03-03T10:04:33.247Z,14.40
2018-03-03T10:05:33.246Z,15.10
2018-03-03T10:06:33.245Z,15.60
2018-03-03T10:07:33.247Z,16.10
2018-03-03T10:08:33.248Z,14.70
2018-03-03T10:09:33.246Z,15.70
2018-03-03T10:10:33.248Z,16.40
2018-03-03T10:11:33.244Z,14.90
2018-03-03T10:12:33.243Z,16.30
2018-03-03T10:13:33.246Z,16.70
2018-03-03T10:14:33.237Z,17.70
2018-03-03T10:15:33.244Z,16.40
2018-03-03T10:16:33.242Z,16.60
2018-03-03T10:17:33.240Z,16.20
2018-03-03T10:18:33.239Z,16.80
2018-03-03T10:19:33.239Z,16.30
2018-03-03T10:20:33.240Z,16.00
2018-03-03T10:21:33.236Z,17.50
2018-03-03T10:22:33.240Z,15.50
2018-03-03T10:23:33.247Z,16.30
2018-03-03T10:24:33.241Z,15.90
2018-03-03T10:25:33.236Z,15.60
2018-03-03T10:26:33.242Z,17.10
2018-03-03T10:27:33.240Z,15.00
2018-03-03T10:28:33.248Z,15.70
2018-03-03T10:29:33.247Z,14.60
2018-03-03T10:30:34.504Z,14.90
2018-03-03T10:31:33.244Z,15.40
2018-03-03T10:32:33.253Z,16.20
2018-03-03T10:33:33.252Z,15.90
2018-03-03T10:34:33.249Z,15.80
2018-03-03T10:35:33.252Z,15.90
2018-03-03T10:36:33.260Z,15.50
2018-03-03T10:37:33.257Z,15.90
2018-03-03T10:38:33.259Z,15.50
2018-03-03T10:39:33.262Z,16.30
2018-03-03T10:40:33.266Z,15.70
2018-03-03T10:41:33.264Z,16.70
2018-03-03T10:42:33.275Z,15.40
2018-03-03T10:43:33.270Z,15.60
2018-03-03T10:44:33.267Z,17.40
2018-03-03T10:45:33.269Z,16.30
2018-03-03T10:46:33.273Z,16.20
2018-03-03T10:47:33.275Z,15.00
2018-03-03T10:48:33.271Z,15.70
2018-03-03T10:49:33.276Z,14.60
2018-03-03T10:50:33.276Z,15.00
2018-03-03T10:51:33.282Z,14.50
2018-03-03T10:52:33.278Z,14.40
2018-03-03T10:53:33.287Z,14.30
2018-03-03T10:54:33.282Z,15.10
2018-03-03T10:55:33.282Z,15.90
2018-03-03T10:56:33.283Z,15.30
2018-03-03T10:57:33.279Z,15.60
2018-03-03T10:58:33.321Z,14.50
2018-03-03T10:59:33.287Z,14.40
2018-03-03T11:00:33.295Z,16.40
2018-03-03T11:01:33.285Z,14.80
2018-03-03T11:02:34.454Z,16.10
2018-03-03T11:03:33.285Z,15.50
2018-03-03T11:04:33.285Z,18.50
2018-03-03T11:05:33.283Z,17.00
2018-03-03T11:06:33.285Z,17.00
2018-03-03T11:07:33.281Z,16.20
2018-03-03T11:08:33.280Z,16.20
2018-03-03T11:09:33.337Z,17.30
2018-03-03T11:10:33.277Z,17.10
2018-03-03T11:11:33.280Z,16.30
2018-03-03T11:12:33.276Z,17.00
2018-03-03T11:13:33.275Z,18.10
2018-03-03T11:14:33.285Z,17.80
2018-03-03T11:15:33.277Z,19.00
2018-03-03T11:16:33.274Z,19.00
2018-03-03T11:17:33.277Z,20.20
2018-03-03T11:18:33.267Z,20.60
2018-03-03T11:19:33.266Z,18.80
2018-03-03T11:20:33.264Z,19.10
2018-03-03T11:21:33.266Z,20.60
2018-03-03T11:22:33.261Z,21.40
2018-03-03T11:23:33.261Z,23.70
2018-03-03T11:24:33.258Z,23.50
2018-03-03T11:25:33.255Z,22.00
2018-03-03T11:26:33.251Z,23.60
2018-03-03T11:27:33.251Z,24.10
2018-03-03T11:28:33.246Z,25.20
2018-03-03T11:29:33.247Z,27.00
2018-03-03T11:30:33.241Z,27.10
2018-03-03T11:31:33.240Z,25.70
2018-03-03T11:32:33.238Z,27.20
2018-03-03T11:33:33.232Z,27.30
2018-03-03T11:34:33.232Z,27.40
2018-03-03T11:35:33.229Z,26.10
2018-03-03T11:36:33.225Z,27.60
2018-03-03T11:37:33.229Z,27.30
2018-03-03T11:38:33.224Z,26.00
2018-03-03T11:39:33.223Z,29.00
2018-03-03T11:40:33.435Z,27.40
2018-03-03T11:41:33.213Z,38.90
2018-03-03T11:42:33.210Z,61.60
2018-03-03T11:43:33.211Z,43.20
2018-03-03T11:44:33.204Z,33.60
2018-03-03T11:45:33.204Z,31.00
2018-03-03T11:46:33.198Z,28.80
2018-03-03T11:47:33.197Z,31.00
2018-03-03T11:48:33.186Z,28.50
2018-03-03T11:49:33.193Z,30.00
2018-03-03T11:50:33.190Z,27.90
2018-03-03T11:51:33.191Z,29.00
2018-03-03T11:52:33.183Z,29.20
2018-03-03T11:53:33.184Z,28.30
2018-03-03T11:54:33.177Z,27.40
2018-03-03T11:55:33.178Z,26.50
2018-03-03T11:56:33.171Z,29.80
2018-03-03T11:57:33.168Z,28.20
2018-03-03T11:58:33.170Z,30.70
2018-03-03T11:59:33.166Z,30.80
2018-03-03T12:00:33.165Z,29.20
2018-03-03T12:01:33.158Z,31.80
2018-03-03T12:02:33.156Z,29.10
2018-03-03T12:03:33.162Z,31.20
2018-03-03T12:04:33.167Z,30.70
2018-03-03T12:05:33.149Z,29.80
2018-03-03T12:06:33.147Z,29.20
2018-03-03T12:07:33.178Z,32.30
2018-03-03T12:08:33.138Z,28.20
2018-03-03T12:09:33.142Z,30.00
2018-03-03T12:10:33.135Z,29.60
2018-03-03T12:11:33.133Z,29.20
2018-03-03T12:12:33.132Z,30.80
2018-03-03T12:13:33.132Z,33.30
2018-03-03T12:14:33.125Z,34.20
2018-03-03T12:15:33.144Z,33.20
2018-03-03T12:16:33.136Z,34.10
2018-03-03T12:17:33.116Z,32.80
2018-03-03T12:18:33.117Z,29.10
2018-03-03T12:19:33.114Z,29.50
2018-03-03T12:20:33.112Z,33.30
2018-03-03T12:21:33.122Z,31.20
2018-03-03T12:22:33.107Z,32.90
2018-03-03T12:23:33.104Z,30.70
2018-03-03T12:24:33.099Z,30.20
2018-03-03T12:25:33.099Z,29.90
2018-03-03T12:26:33.099Z,32.60
2018-03-03T12:27:33.102Z,32.60
2018-03-03T12:28:33.095Z,33.80
2018-03-03T12:29:33.095Z,31.30
2018-03-03T12:30:33.120Z,32.30
2018-03-03T12:31:33.089Z,31.90
2018-03-03T12:32:33.098Z,32.90
2018-03-03T12:33:33.082Z,33.20
2018-03-03T12:34:33.080Z,33.30
2018-03-03T12:35:33.078Z,31.60
2018-03-03T12:36:33.075Z,33.10
2018-03-03T12:37:33.072Z,33.30
2018-03-03T12:38:33.069Z,31.40
2018-03-03T12:39:33.065Z,34.60
2018-03-03T12:40:33.061Z,31.20
2018-03-03T12:41:33.090Z,34.40
2018-03-03T12:42:33.060Z,31.50
2018-03-03T12:43:33.054Z,35.20
2018-03-03T12:44:33.051Z,32.00
2018-03-03T12:45:33.049Z,32.60
2018-03-03T12:46:33.046Z,31.80
2018-03-03T12:47:33.060Z,32.80
2018-03-03T12:48:33.036Z,31.80
2018-03-03T12:49:33.039Z,33.20
2018-03-03T12:50:33.035Z,31.40
2018-03-03T12:51:33.032Z,32.60
2018-03-03T12:52:33.027Z,31.20
2018-03-03T12:53:33.025Z,29.90
2018-03-03T12:54:33.013Z,31.10
2018-03-03T12:55:33.019Z,32.60
2018-03-03T12:56:33.018Z,32.90
2018-03-03T12:57:33.034Z,32.70
2018-03-03T12:58:33.081Z,32.20
2018-03-03T12:59:33.007Z,31.90
2018-03-03T13:00:33.000Z,34.60
2018-03-03T13:01:32.994Z,32.70
2018-03-03T13:02:32.991Z,33.20
2018-03-03T13:03:32.994Z,32.80
2018-03-03T13:04:32.982Z,34.90
2018-03-03T13:05:32.981Z,35.60
2018-03-03T13:06:32.975Z,35.10
2018-03-03T13:07:32.974Z,33.50
2018-03-03T13:08:32.966Z,33.80
2018-03-03T13:09:32.965Z,35.70
2018-03-03T13:10:32.961Z,34.60
2018-03-03T13:11:32.951Z,35.00
2018-03-03T13:12:32.952Z,35.60
2018-03-03T13:13:32.972Z,34.60
2018-03-03T13:14:32.946Z,32.60
2018-03-03T13:15:32.942Z,33.40
2018-03-03T13:16:32.938Z,35.10
2018-03-03T13:17:32.936Z,33.20
2018-03-03T13:18:32.930Z,33.80
2018-03-03T13:19:32.926Z,35.70
2018-03-03T13:20:32.919Z,34.50
2018-03-03T13:21:32.914Z,32.50
2018-03-03T13:22:32.911Z,33.80
2018-03-03T13:23:32.906Z,35.60
2018-03-03T13:24:32.900Z,34.60
2018-03-03T13:25:32.898Z,38.00
2018-03-03T13:26:32.893Z,36.60
2018-03-03T13:27:32.936Z,36.30
2018-03-03T13:28:32.938Z,35.30
2018-03-03T13:29:32.879Z,37.60
2018-03-03T13:30:32.876Z,36.00
2018-03-03T13:31:32.874Z,36.30
2018-03-03T13:32:32.866Z,34.80
2018-03-03T13:33:32.865Z,33.90
2018-03-03T13:34:32.861Z,33.10
2018-03-03T13:35:32.855Z,37.40
2018-03-03T13:36:32.904Z,34.10
2018-03-03T13:37:32.847Z,34.70
2018-03-03T13:38:32.846Z,33.70
2018-03-03T13:39:32.841Z,37.30
2018-03-03T13:40:32.831Z,34.40
2018-03-03T13:41:32.831Z,37.20
2018-03-03T13:42:32.828Z,38.70
2018-03-03T13:43:32.826Z,33.60
2018-03-03T13:44:32.820Z,36.10
2018-03-03T13:45:32.817Z,36.60
2018-03-03T13:46:32.809Z,34.70
2018-03-03T13:47:32.805Z,35.90
2018-03-03T13:48:32.805Z,34.00
2018-03-03T13:49:32.795Z,36.50